• Join FlightAware (Why Join?)
  • Login
  • US Flag 
02:42PM EDT


 

Airport Tracker/Info


-or-


 

Live Flight TrackerFlight Track Log ✈ SWA499 ✈ 23-Apr-2013 ✈ KSLC - KDEN

Flight Track Log - Related Links

Times and Time Zones

All times are in EDT time to prevent confusion due to time zone crossing. See the SWA499 flight status page for this flight to view local times or setup timezone preferences in your user account.

Time Position Orientation Groundspeed Altitude Reporting Facility
EDT Latitude Longitude Course Direction KTS MPH feet Rate Location/Type
10:23AM 40.8100 -111.9639 355° North 167 192 5,300  Level Salt Lake Center
10:24AM 40.8689 -111.9708 355° North 197 227 8,000 3,000 Climbing Salt Lake Center
10:25AM 40.9381 -111.9678 North 253 291 11,700 2,880 Climbing Salt Lake Center
10:26AM 40.9483 -111.8583 83° East 311 358 14,000 2,580 Climbing Salt Lake Center
10:27AM 40.9372 -111.7300 96° East 347 399 17,000 2,760 Climbing Salt Lake Center
10:28AM 40.9269 -111.5928 96° East 372 428 19,700 2,580 Climbing Salt Lake Center
10:29AM 40.9144 -111.4506 97° East 389 448 22,300 2,460 Climbing Salt Lake Center
10:30AM 40.8969 -111.2861 98° East 412 474 24,800 2,100 Climbing Salt Lake Center
10:31AM 40.8778 -111.1486 100° East 422 486 26,700 1,860 Climbing Salt Lake Center
10:32AM 40.8581 -110.9686 98° East 441 507 28,700 1,740 Climbing Salt Lake Center
10:33AM 40.8392 -110.8103 99° East 453 521 30,300 1,560 Climbing Salt Lake Center
10:35AM 40.8156 -110.6208 99° East 466 536 32,000 1,380 Climbing Salt Lake Center
10:36AM 40.7947 -110.4544 99° East 477 549 33,200 1,080 Climbing Salt Lake Center
10:37AM 40.7739 -110.2833 99° East 491 565 34,300 1,380 Climbing Salt Lake Center
10:38AM 40.7497 -110.0950 100° East 500 575 36,100 1,260 Climbing Salt Lake Center
10:39AM 40.7319 -109.8961 97° East 492 566 37,000 420 Climbing Salt Lake Center
10:40AM 40.7200 -109.7267 95° East 486 559 37,000  Level Salt Lake Center
10:41AM 40.7058 -109.5289 95° East 485 558 37,000  Level Salt Lake Center
10:42AM 40.6925 -109.3603 96° East 483 556 37,000  Level Salt Lake Center
10:43AM 40.6800 -109.1839 95° East 484 557 37,000  Level Salt Lake Center
10:44AM 40.6642 -108.9883 96° East 483 556 37,000  Level Salt Lake Center
10:45AM 40.6503 -108.8206 96° East 483 556 37,000  Level Salt Lake Center
10:46AM 40.6389 -108.6822 96° East 482 555 37,000  Level Denver Center
10:47AM 40.6233 -108.4850 96° East 484 557 37,000  Level Denver Center
10:48AM 40.6094 -108.3144 96° East 487 560 37,000 -300 Level Denver Center
10:49AM 40.5928 -108.1192 96° East 482 555 36,500 -540 Descending Denver Center
10:50AM 40.5781 -107.9528 97° East 480 552 36,000 -540 Descending Denver Center
10:51AM 40.5631 -107.7842 97° East 483 556 35,400 -840 Descending Denver Center
10:52AM 40.5853 -107.5833 82° East 498 573 34,300 -1,020 Descending Denver Center
10:53AM 40.6114 -107.4092 79° East 505 581 33,400 -660 Descending Denver Center
10:54AM 40.6467 -107.2097 77° East 509 586 33,000 -240 Descending Denver Center
10:55AM 40.6783 -107.0253 77° East 512 589 33,000 -240 Level Denver Center
10:56AM 40.7106 -106.8439 77° East 509 586 32,600 -780 Descending Denver Center
10:57AM 40.7422 -106.6683 77° East 494 568 31,500 -1,080 Descending Denver Center
10:58AM 40.7503 -106.4761 87° East 468 539 30,400 -900 Descending Denver Center
10:59AM 40.7064 -106.3503 115° Southeast 473 544 29,700 -1,020 Descending Denver Center
11:00AM 40.6339 -106.1511 116° Southeast 477 549 28,400 -1,080 Descending Denver Center
11:01AM 40.5806 -106.0144 117° Southeast 471 542 27,500 -1,200 Descending Denver Center
11:02AM 40.5128 -105.8386 117° Southeast 460 529 26,000 -1,860 Descending Denver Center
11:03AM 40.4536 -105.6883 117° Southeast 459 528 23,700 -2,160 Descending Denver Center
11:04AM 40.4008 -105.5475 116° Southeast 433 498 21,600 -1,500 Descending Denver Center
11:05AM 40.3464 -105.4156 118° Southeast 409 471 20,700 -1,260 Descending Denver Center
11:06AM 40.2764 -105.3097 131° Southeast 360 414 19,000 -1,440 Descending Denver Center
11:07AM 40.2158 -105.2142 130° Southeast 343 395 17,800 -1,020 Descending Denver Center
11:08AM 40.1556 -105.1214 130° Southeast 338 389 17,000 -720 Descending Denver Center
11:09AM 40.0925 -105.0231 130° Southeast 328 377 16,400 -960 Descending Denver Center
11:10AM 40.0353 -104.9344 130° Southeast 320 368 15,000 -1,440 Descending Denver Center
11:11AM 39.9747 -104.8397 130° Southeast 314 361 13,400 -1,500 Descending Denver Center
11:12AM 39.8997 -104.8047 160° South 304 350 11,900 -1,080 Descending Denver Center
11:13AM 39.8178 -104.8078 182° South 273 314 11,200 -480 Descending Denver Center
11:15AM 39.7503 -104.8097 181° South 243 280 11,000 -600 Descending Denver Center
11:16AM 39.6797 -104.8111 181° South 235 270 10,000 -540 Descending Denver Center
11:17AM 39.6236 -104.8131 182° South 239 275 10,000  Level Denver Center
11:18AM 39.5411 -104.8164 182° South 239 275 10,000  Level Denver Center
11:19AM 39.4733 -104.8181 181° South 239 275 10,000  Level Denver Center
11:20AM 39.4003 -104.8192 181° South 243 280 10,000  Level Denver Center
11:21AM 39.3719 -104.7753 130° Southeast 226 260 10,000  Level Denver Center
11:22AM 39.4025 -104.7036 61° Northeast 215 247 10,000  Level Denver Center
11:23AM 39.4539 -104.6681 28° Northeast 212 244 10,000  Level Denver Center
11:24AM 39.5117 -104.6650 North 206 237 10,000 -60 Level Denver Center
11:25AM 39.5739 -104.6642 North 209 241 9,900 -360 Descending Denver Center
11:26AM 39.6322 -104.6631 North 209 241 9,300 -720 Descending Denver Center
11:27AM 39.6803 -104.6622 North 205 236 8,500 -1,020 Descending Denver Center
11:28AM 39.7464 -104.6617 360° North 192 221 7,200 -1,140 Descending Denver Center
11:29AM 39.7933 -104.6614 360° North 160 184 6,200 -900 Descending Denver Center
11:30AM 39.8322 -104.6608 North 142 163 5,400 -780 Descending Denver Center
11:32AM 39.8500 -104.6667 North  Level FlightAware Approximate
11:39AM 39.8617 -104.6732 North  Level Estimated
11:40AM 39.8617 -104.6732 North  Level Estimated
11:41AM 39.8617 -104.6732 North  Level Estimated